createdAt,value
2022-12-17T00:02:33.728Z,1.75
2022-12-17T00:05:21.210Z,1.45
2022-12-17T00:08:14.962Z,1.65
2022-12-17T00:11:01.193Z,1.83
2022-12-17T00:13:47.737Z,1.55
2022-12-17T00:16:34.472Z,1.90
2022-12-17T00:19:20.950Z,1.67
2022-12-17T00:22:07.257Z,1.38
2022-12-17T00:24:52.943Z,1.73
2022-12-17T00:27:42.858Z,1.75
2022-12-17T00:30:32.085Z,1.67
2022-12-17T00:33:19.300Z,1.60
2022-12-17T00:36:13.165Z,0.98
2022-12-17T00:38:59.510Z,1.80
2022-12-17T00:41:47.261Z,1.38
2022-12-17T00:44:35.808Z,1.80
2022-12-17T00:47:22.151Z,1.85
2022-12-17T00:50:09.345Z,1.70
2022-12-17T00:52:56.640Z,1.40
2022-12-17T00:55:44.019Z,1.25
2022-12-17T00:58:30.462Z,1.75
2022-12-17T01:01:21.924Z,1.65
2022-12-17T01:04:08.918Z,1.00
2022-12-17T01:07:16.517Z,1.85
2022-12-17T01:10:05.243Z,1.25
2022-12-17T01:12:51.871Z,0.68
2022-12-17T01:15:40.524Z,1.30
2022-12-17T01:18:28.315Z,1.42
2022-12-17T01:21:17.739Z,1.65
2022-12-17T01:24:06.229Z,1.42
2022-12-17T01:26:53.592Z,1.73
2022-12-17T01:29:43.005Z,1.90
2022-12-17T01:32:32.386Z,1.65
2022-12-17T01:35:21.862Z,1.17
2022-12-17T01:38:09.301Z,0.93
2022-12-17T01:40:56.970Z,0.98
2022-12-17T01:43:57.038Z,1.73
2022-12-17T01:46:46.843Z,2.00
2022-12-17T01:49:37.186Z,1.50
2022-12-17T01:52:25.193Z,1.25
2022-12-17T01:55:13.837Z,1.48
2022-12-17T01:58:00.686Z,1.17
2022-12-17T02:00:47.633Z,1.48
2022-12-17T02:03:37.775Z,1.30
2022-12-17T02:06:25.710Z,1.08
2022-12-17T06:17:25.280Z,0.40
2022-12-17T06:20:09.686Z,0.45
2022-12-17T06:22:55.159Z,0.63
2022-12-17T06:25:41.018Z,1.20
2022-12-17T06:28:27.989Z,2.28
2022-12-17T06:31:14.430Z,2.38
2022-12-17T06:34:00.525Z,1.98
2022-12-17T06:36:46.272Z,2.17
2022-12-17T06:39:32.299Z,2.67
2022-12-17T06:42:18.246Z,2.00
2022-12-17T06:45:04.203Z,2.90
2022-12-17T06:47:49.831Z,2.08
2022-12-17T06:50:36.072Z,10.85
2022-12-17T06:53:24.114Z,5.00
2022-12-17T06:56:11.453Z,5.45
2022-12-17T06:58:57.362Z,3.67
2022-12-17T07:01:43.883Z,2.55
2022-12-17T07:04:30.424Z,2.72
2022-12-17T07:07:18.178Z,3.03
2022-12-17T07:10:05.919Z,7.45
2022-12-17T07:12:55.045Z,10.63
2022-12-17T07:15:40.808Z,9.27
2022-12-17T07:18:27.607Z,4.93
2022-12-17T07:21:13.413Z,3.72
2022-12-17T07:23:59.617Z,2.90
2022-12-17T07:26:45.392Z,3.30
2022-12-17T07:29:31.779Z,2.28
2022-12-17T07:32:17.792Z,2.92
2022-12-17T07:35:04.200Z,4.80
2022-12-17T07:37:50.322Z,5.70
2022-12-17T07:40:36.510Z,4.07
2022-12-17T07:43:31.767Z,5.22
2022-12-17T07:46:17.838Z,3.00
2022-12-17T07:49:04.008Z,3.38
2022-12-17T07:51:50.046Z,3.05
2022-12-17T07:54:35.849Z,2.92
2022-12-17T07:57:22.027Z,3.60
2022-12-17T08:00:07.581Z,2.20
2022-12-17T08:02:53.876Z,1.65
2022-12-17T08:05:40.121Z,1.23
2022-12-17T08:08:30.118Z,2.05
2022-12-17T08:11:16.340Z,2.22
2022-12-17T08:14:02.709Z,2.25
2022-12-17T08:16:48.477Z,2.00
2022-12-17T08:19:37.155Z,1.52
2022-12-17T08:22:22.807Z,1.88
2022-12-17T08:25:08.671Z,5.60
2022-12-17T08:27:57.310Z,6.15
2022-12-17T08:30:43.241Z,5.53
2022-12-17T08:33:28.965Z,5.80
2022-12-17T08:36:16.156Z,4.47
2022-12-17T08:39:02.554Z,3.13
2022-12-17T08:41:54.206Z,4.05
2022-12-17T08:44:44.577Z,2.42
2022-12-17T08:47:29.896Z,1.52
2022-12-17T08:50:15.407Z,1.15
2022-12-17T08:53:00.620Z,1.80
2022-12-17T08:55:46.695Z,1.38
2022-12-17T08:58:32.499Z,1.20
2022-12-17T09:01:18.896Z,1.90
2022-12-17T09:04:05.632Z,1.70
2022-12-17T09:06:51.556Z,1.88
2022-12-17T09:09:36.740Z,1.25
2022-12-17T09:12:22.616Z,1.25
2022-12-17T09:15:08.093Z,2.30
2022-12-17T09:17:53.624Z,1.40
2022-12-17T09:20:39.662Z,1.40
2022-12-17T09:23:25.110Z,2.65
2022-12-17T09:26:15.760Z,3.38
2022-12-17T09:29:01.530Z,4.45
2022-12-17T09:31:47.342Z,2.33
2022-12-17T09:34:32.783Z,1.40
2022-12-17T09:37:18.586Z,2.55
2022-12-17T09:40:04.125Z,1.25
2022-12-17T09:43:14.679Z,2.22
2022-12-17T09:46:40.514Z,1.55
2022-12-17T09:49:42.514Z,3.65
2022-12-17T09:52:34.207Z,4.15
2022-12-17T09:55:20.154Z,3.92
2022-12-17T09:58:07.500Z,3.53
2022-12-17T10:00:59.173Z,6.28
2022-12-17T10:03:48.517Z,5.18
2022-12-17T10:06:41.030Z,3.13
2022-12-17T10:09:35.402Z,2.55
2022-12-17T10:12:40.278Z,3.17
2022-12-17T10:15:27.009Z,1.85
2022-12-17T10:18:12.329Z,2.47
2022-12-17T14:29:13.780Z,0.98
2022-12-17T14:31:52.092Z,0.17
2022-12-17T14:34:18.030Z,0.13
2022-12-17T14:36:44.070Z,0.00
2022-12-17T14:39:20.469Z,0.00
2022-12-17T14:42:08.755Z,0.20
2022-12-17T14:44:38.834Z,0.22
2022-12-17T14:47:19.863Z,0.30
2022-12-17T14:50:23.681Z,0.00
2022-12-17T14:52:54.842Z,0.55
2022-12-17T14:55:33.844Z,0.00
2022-12-17T14:58:15.923Z,0.10
2022-12-17T15:01:05.966Z,0.00
2022-12-17T15:03:36.776Z,0.15
2022-12-17T15:06:05.456Z,0.00
2022-12-17T15:08:34.782Z,0.00
2022-12-17T15:11:01.220Z,0.00
2022-12-17T15:13:27.114Z,0.00
2022-12-17T15:15:53.063Z,0.47
2022-12-17T15:18:19.038Z,2.92
2022-12-17T15:20:44.996Z,1.75
2022-12-17T15:23:18.793Z,0.55
2022-12-17T15:25:47.386Z,1.10
2022-12-17T15:28:13.761Z,0.50
2022-12-17T15:30:39.933Z,2.50
2022-12-17T15:33:07.427Z,0.00
2022-12-17T15:35:34.178Z,0.10
2022-12-17T15:38:00.250Z,0.88
2022-12-17T15:40:26.252Z,0.93
2022-12-17T15:43:10.522Z,1.92
2022-12-17T15:45:50.999Z,1.15
2022-12-17T15:48:22.784Z,3.20
2022-12-17T15:50:49.395Z,5.60
2022-12-17T15:53:15.541Z,3.60
2022-12-17T15:55:41.824Z,1.55
2022-12-17T15:58:09.929Z,5.22
2022-12-17T16:00:36.961Z,1.00
2022-12-17T16:03:03.729Z,0.75
2022-12-17T16:05:29.818Z,0.10
2022-12-17T16:07:58.420Z,0.50
2022-12-17T16:10:24.776Z,0.52
2022-12-17T16:12:50.700Z,0.00
2022-12-17T16:15:16.928Z,0.10
2022-12-17T16:17:42.861Z,1.05
2022-12-17T16:20:09.490Z,0.00
2022-12-17T16:22:36.329Z,0.55
2022-12-17T16:25:02.349Z,0.22
2022-12-17T16:27:28.348Z,0.00
2022-12-17T16:29:54.342Z,0.73
2022-12-17T16:32:20.411Z,0.10
2022-12-17T16:34:46.545Z,0.28
2022-12-17T16:37:12.495Z,2.03
2022-12-17T16:39:38.530Z,1.35
2022-12-17T16:42:04.529Z,0.65
2022-12-17T16:44:30.515Z,0.00
2022-12-17T16:46:56.561Z,0.00
2022-12-17T16:49:26.407Z,0.00
2022-12-17T16:51:53.551Z,0.00
2022-12-17T16:54:26.432Z,0.00
2022-12-17T16:56:54.856Z,0.00
2022-12-17T16:59:22.629Z,0.20
2022-12-17T17:01:50.568Z,0.00
2022-12-17T17:04:19.069Z,0.10
2022-12-17T17:06:47.988Z,0.00
2022-12-17T17:09:14.681Z,0.00
2022-12-17T17:11:42.605Z,0.00
2022-12-17T17:14:10.938Z,0.00
2022-12-17T17:16:37.296Z,0.00
2022-12-17T17:19:04.627Z,0.00
2022-12-17T17:21:33.635Z,0.03
2022-12-17T17:24:02.265Z,0.00
2022-12-17T17:26:31.247Z,0.00
2022-12-17T17:28:57.680Z,0.00
2022-12-17T17:31:46.391Z,0.00
2022-12-17T17:34:12.992Z,0.00
2022-12-17T17:36:39.940Z,0.00
2022-12-17T17:39:06.209Z,0.00
2022-12-17T17:41:34.414Z,0.00
2022-12-17T17:44:10.499Z,0.00
2022-12-17T17:46:37.043Z,0.00
2022-12-17T17:49:05.420Z,1.08
2022-12-17T17:52:08.547Z,0.00
2022-12-17T17:54:23.494Z,0.00
2022-12-17T17:56:49.457Z,0.00
2022-12-17T17:59:18.706Z,0.00
2022-12-17T18:01:47.376Z,0.00
2022-12-17T18:04:17.472Z,0.00
2022-12-17T18:07:02.570Z,1.48
2022-12-17T18:09:38.850Z,0.00
2022-12-17T18:12:27.964Z,0.00
2022-12-17T18:17:44.156Z,0.00
2022-12-17T18:20:12.063Z,0.00
2022-12-17T18:22:38.922Z,0.20
2022-12-17T18:25:05.955Z,0.00
2022-12-17T18:27:32.856Z,0.32
2022-12-17T18:30:00.205Z,0.00
2022-12-17T18:32:27.143Z,0.00
2022-12-17T18:34:54.171Z,0.00
2022-12-17T18:37:21.288Z,0.00
2022-12-17T18:39:48.959Z,0.00
2022-12-17T18:42:34.877Z,0.00
2022-12-17T18:45:02.003Z,0.00
2022-12-17T18:47:29.054Z,0.00
2022-12-17T18:49:56.352Z,0.00
2022-12-17T18:52:24.932Z,0.00
2022-12-17T18:54:52.149Z,0.00
2022-12-17T18:57:19.535Z,0.00
2022-12-17T18:59:46.872Z,0.38
2022-12-17T19:02:15.038Z,0.00
2022-12-17T19:04:42.379Z,0.00
2022-12-17T19:07:10.102Z,0.00
2022-12-17T19:09:38.837Z,0.00
2022-12-17T19:12:07.819Z,0.00
2022-12-17T19:14:35.658Z,0.00
2022-12-17T19:17:03.258Z,0.00
2022-12-17T19:19:30.530Z,0.00
2022-12-17T19:21:59.761Z,0.00
2022-12-17T19:24:26.980Z,0.00
2022-12-17T19:26:53.909Z,0.00
2022-12-17T19:29:21.906Z,0.00
2022-12-17T19:31:49.360Z,0.30
2022-12-17T19:34:18.898Z,0.00
2022-12-17T19:36:46.768Z,0.00
2022-12-17T19:39:18.062Z,0.00
2022-12-17T19:41:45.822Z,0.00
2022-12-17T19:44:16.566Z,0.00
2022-12-17T19:46:47.782Z,0.00
2022-12-17T19:49:17.832Z,0.10
2022-12-17T19:51:45.998Z,0.00
2022-12-17T19:54:15.547Z,0.40
2022-12-17T19:56:45.232Z,0.10
2022-12-17T19:59:13.335Z,0.00
2022-12-17T20:01:44.122Z,0.00
2022-12-17T20:04:14.486Z,0.00
2022-12-17T20:06:42.641Z,0.00
2022-12-17T20:09:10.269Z,0.10
2022-12-17T20:11:39.024Z,0.00
2022-12-17T20:14:18.833Z,0.00
2022-12-17T20:16:49.596Z,0.70
2022-12-17T20:19:22.777Z,0.00
2022-12-17T20:21:51.135Z,0.00
2022-12-17T20:24:18.790Z,0.00
2022-12-17T20:26:48.347Z,0.00
2022-12-17T20:29:15.737Z,0.17
2022-12-17T20:31:49.525Z,0.00
2022-12-17T20:34:19.901Z,0.00
2022-12-17T20:36:46.783Z,0.00
2022-12-17T20:39:13.911Z,0.00
2022-12-17T20:41:41.907Z,0.10
2022-12-17T20:44:13.035Z,0.00
2022-12-17T20:46:41.348Z,0.00
2022-12-17T20:49:10.830Z,0.00
2022-12-17T20:51:38.583Z,0.00
2022-12-17T20:54:05.920Z,0.00
2022-12-17T20:56:34.293Z,0.22
2022-12-17T20:59:04.551Z,0.00
2022-12-17T21:01:34.728Z,0.00
2022-12-17T21:04:02.759Z,0.00
2022-12-17T21:06:57.243Z,0.00
2022-12-17T21:09:25.693Z,0.00
2022-12-17T21:11:52.671Z,1.30
2022-12-17T21:14:20.023Z,0.45
2022-12-17T21:16:48.254Z,0.20
2022-12-17T21:19:18.564Z,0.00
2022-12-17T21:21:45.818Z,0.08
2022-12-17T21:24:13.107Z,0.00
2022-12-17T21:26:42.905Z,0.00
2022-12-17T21:29:13.218Z,0.13
2022-12-17T21:31:44.387Z,0.00
2022-12-17T21:34:15.686Z,0.00
2022-12-17T21:36:43.416Z,0.00
2022-12-17T21:39:14.232Z,0.90
2022-12-17T21:41:44.609Z,0.00
2022-12-17T21:44:15.155Z,0.00
2022-12-17T21:46:42.941Z,0.00
2022-12-17T21:49:10.556Z,0.00
2022-12-17T21:51:37.782Z,0.00
2022-12-17T21:54:08.245Z,0.00
2022-12-17T21:56:36.415Z,0.00
2022-12-17T21:59:04.092Z,0.00
2022-12-17T22:01:33.497Z,0.00
2022-12-17T22:04:03.038Z,0.85
2022-12-17T22:06:36.870Z,0.00
2022-12-17T22:09:15.081Z,0.00
2022-12-17T22:12:15.851Z,1.05
2022-12-17T22:14:43.625Z,0.00
2022-12-17T22:17:11.230Z,0.00
2022-12-17T22:19:40.835Z,0.38
2022-12-17T22:22:08.544Z,0.10
2022-12-17T22:24:36.863Z,0.00
2022-12-17T22:27:09.135Z,0.00
2022-12-17T22:29:56.031Z,0.00
2022-12-17T22:32:42.048Z,0.00
2022-12-17T22:36:17.601Z,0.30
2022-12-17T22:39:49.532Z,2.72
2022-12-17T22:44:31.316Z,0.03
2022-12-17T22:44:37.956Z,0.00
2022-12-17T22:46:20.344Z,0.13
2022-12-17T22:48:48.077Z,0.50
2022-12-17T22:51:19.423Z,0.10
2022-12-17T22:54:06.140Z,0.90
2022-12-17T22:57:14.872Z,0.00
2022-12-17T22:59:26.142Z,5.47
2022-12-17T23:01:53.045Z,0.10
2022-12-17T23:04:19.999Z,0.00
2022-12-17T23:06:46.838Z,0.70
2022-12-17T23:09:15.852Z,0.95
2022-12-17T23:11:42.623Z,0.00
2022-12-17T23:14:09.959Z,2.30
2022-12-17T23:16:41.343Z,0.00
2022-12-17T23:19:08.962Z,0.00
2022-12-17T23:21:36.312Z,0.15
2022-12-17T23:24:04.876Z,0.32
2022-12-17T23:26:35.078Z,0.60
2022-12-17T23:29:05.215Z,0.00
2022-12-17T23:31:36.669Z,0.20
2022-12-17T23:34:04.897Z,0.10
2022-12-17T23:36:31.786Z,0.00
2022-12-17T23:38:59.448Z,0.00
2022-12-17T23:41:30.551Z,2.08
2022-12-17T23:43:58.844Z,0.20
2022-12-17T23:46:28.467Z,1.08
2022-12-17T23:48:56.291Z,0.00
2022-12-17T23:51:25.025Z,0.05
2022-12-17T23:53:52.360Z,0.00
2022-12-17T23:56:22.283Z,0.00
2022-12-17T23:58:53.475Z,0.00
